Time;durP1;ratioP1;P1;durP2;ratioP2;P2;SDS_P1;SDS_P2;PMS_P1;PMS_P2;Temp;Humidity;BMP_temperature;BMP_pressure;BME280_temperature;BME280_humidity;BME280_pressure;Samples;Min_cycle;Max_cycle;Signal;HPM_P1;HPM_P2
2023/03/29 00:00:48;;;;;;;38.28;20.33;;;26.60;99.90;;;;;;5063215;28;20103;-67
2023/03/29 00:03:16;;;;;;;39.85;19.75;;;26.70;99.90;;;;;;5063749;28;20029;-68
2023/03/29 00:05:43;;;;;;;44.13;22.45;;;26.70;99.90;;;;;;5061939;28;20021;-69
2023/03/29 00:08:13;;;;;;;42.08;24.75;;;26.70;99.90;;;;;;5062894;28;20026;-68
2023/03/29 00:10:40;;;;;;;45.55;23.40;;;26.80;99.90;;;;;;5063709;28;20032;-69
2023/03/29 00:13:07;;;;;;;35.92;22.15;;;26.80;99.90;;;;;;5062409;28;20013;-69
2023/03/29 00:15:33;;;;;;;31.95;20.35;;;26.80;99.90;;;;;;5062541;28;20008;-69
2023/03/29 00:18:00;;;;;;;37.42;20.90;;;26.80;99.90;;;;;;5063545;28;20025;-69
2023/03/29 00:20:27;;;;;;;47.15;21.80;;;26.80;99.90;;;;;;5062458;28;20474;-70
2023/03/29 00:22:54;;;;;;;52.40;29.77;;;26.90;99.90;;;;;;5062257;28;20100;-69
2023/03/29 00:25:20;;;;;;;51.85;29.83;;;26.70;99.90;;;;;;5063445;28;20020;-73
2023/03/29 00:27:47;;;;;;;52.85;30.85;;;26.70;99.90;;;;;;5062385;28;20025;-69
2023/03/29 00:30:14;;;;;;;46.00;26.50;;;26.70;99.90;;;;;;5062189;28;20062;-69
2023/03/29 00:32:41;;;;;;;42.95;24.45;;;;;;;;;;5063608;28;20017;-69
2023/03/29 00:35:08;;;;;;;54.10;24.58;;;26.80;99.90;;;;;;5062376;28;20014;-69
2023/03/29 00:37:36;;;;;;;47.88;25.17;;;26.80;99.90;;;;;;5049467;28;20436;-67
2023/03/29 00:40:12;;;;;;;44.13;23.50;;;26.90;99.90;;;;;;5072891;28;20071;-67
2023/03/29 00:42:38;;;;;;;47.60;24.52;;;26.90;99.90;;;;;;5073208;28;20535;-69
2023/03/29 00:45:10;;;;;;;51.35;25.20;;;27.00;99.90;;;;;;5073020;28;20036;-68
2023/03/29 00:47:42;;;;;;;44.00;20.80;;;27.00;99.90;;;;;;5032799;28;20033;-72
2023/03/29 00:50:15;;;;;;;43.72;20.30;;;27.00;99.90;;;;;;5033942;28;20029;-71
2023/03/29 00:52:47;;;;;;;32.40;18.65;;;27.00;99.90;;;;;;5036893;28;20026;-67
2023/03/29 00:55:20;;;;;;;41.67;23.52;;;27.00;99.90;;;;;;5036957;28;20017;-67
2023/03/29 00:57:48;;;;;;;43.22;22.48;;;26.90;99.90;;;;;;5036977;28;20467;-67
2023/03/29 01:00:19;;;;;;;42.67;21.92;;;26.90;99.90;;;;;;5042519;28;20044;-67
2023/03/29 01:02:53;;;;;;;36.47;21.08;;;26.90;99.90;;;;;;5052405;28;20466;-67
2023/03/29 01:05:28;;;;;;;39.65;23.02;;;26.80;99.90;;;;;;5056127;28;20485;-67
2023/03/29 01:08:01;;;;;;;40.78;22.90;;;26.80;99.90;;;;;;5056519;28;20068;-69
2023/03/29 01:10:33;;;;;;;41.85;22.65;;;26.90;99.90;;;;;;5056488;28;20068;-68
2023/03/29 01:13:25;;;;;;;37.15;21.25;;;26.90;99.90;;;;;;5056576;28;20441;-69
2023/03/29 01:15:55;;;;;;;40.10;20.70;;;26.90;99.90;;;;;;5049951;28;20033;-68
2023/03/29 01:18:21;;;;;;;42.25;21.92;;;26.90;99.90;;;;;;5037371;28;20045;-68
2023/03/29 01:21:01;;;;;;;43.88;23.52;;;27.00;99.90;;;;;;5035476;28;20026;-69
2023/03/29 01:23:49;;;;;;;37.28;21.40;;;27.00;99.90;;;;;;5036390;28;20028;-67
2023/03/29 01:26:38;;;;;;;33.33;18.05;;;27.00;99.90;;;;;;5036330;28;20072;-67
2023/03/29 01:29:21;;;;;;;30.15;17.50;;;27.00;99.90;;;;;;5028342;28;20033;-70
2023/03/29 01:32:11;;;;;;;37.22;18.10;;;27.00;99.90;;;;;;5036571;28;20119;-68
2023/03/29 01:34:42;;;;;;;117.68;59.58;;;27.00;99.90;;;;;;5036238;28;20029;-66
2023/03/29 01:37:25;;;;;;;36.67;19.00;;;27.10;99.90;;;;;;5036078;28;20112;-71
2023/03/29 01:39:52;;;;;;;27.77;17.80;;;27.10;99.90;;;;;;5036793;28;20036;-67
2023/03/29 01:42:35;;;;;;;47.17;28.67;;;27.10;99.90;;;;;;5036859;28;20095;-68
2023/03/29 01:45:10;;;;;;;32.28;19.63;;;27.10;99.90;;;;;;5035991;28;20022;-68
2023/03/29 01:47:42;;;;;;;36.25;20.20;;;27.10;99.90;;;;;;5035908;28;20036;-67
2023/03/29 01:50:19;;;;;;;31.35;17.83;;;27.20;99.90;;;;;;5035834;28;20495;-68
2023/03/29 01:52:55;;;;;;;38.17;18.67;;;27.20;99.90;;;;;;5035641;28;20485;-68
2023/03/29 01:55:31;;;;;;;45.75;20.67;;;27.30;99.90;;;;;;5035822;28;20466;-69
2023/03/29 01:58:00;;;;;;;34.30;17.77;;;27.40;99.90;;;;;;5034337;28;20025;-67
2023/03/29 02:00:29;;;;;;;44.28;24.80;;;27.50;99.90;;;;;;5033749;28;20478;-66
2023/03/29 02:03:00;;;;;;;52.85;25.05;;;27.50;99.90;;;;;;5032450;28;20044;-68
2023/03/29 02:05:30;;;;;;;27.70;14.90;;;27.60;99.90;;;;;;5033527;28;20025;-67
2023/03/29 02:07:59;;;;;;;26.20;12.88;;;27.60;99.90;;;;;;5034065;28;20033;-68
2023/03/29 02:10:26;;;;;;;21.73;11.43;;;27.60;99.90;;;;;;5033940;28;20037;-68
2023/03/29 02:12:53;;;;;;;17.63;11.52;;;27.60;99.90;;;;;;5034722;28;20024;-70
2023/03/29 02:15:22;;;;;;;26.48;13.02;;;27.70;99.90;;;;;;5035392;28;20489;-69
2023/03/29 02:17:49;;;;;;;27.45;11.93;;;27.70;99.90;;;;;;5035027;28;20029;-69
2023/03/29 02:20:32;;;;;;;19.02;11.95;;;27.70;99.90;;;;;;5035321;28;20112;-69
2023/03/29 02:23:01;;;;;;;29.70;13.48;;;27.70;99.90;;;;;;5035111;28;20021;-69
2023/03/29 02:25:28;;;;;;;21.83;12.43;;;27.90;99.90;;;;;;5035308;28;20030;-69
2023/03/29 02:27:56;;;;;;;22.98;12.80;;;27.90;99.90;;;;;;5035169;28;20103;-69
2023/03/29 02:30:28;;;;;;;23.00;11.20;;;28.00;99.90;;;;;;5034991;28;20053;-68
2023/03/29 02:33:04;;;;;;;17.48;12.05;;;28.10;99.90;;;;;;5035099;28;20045;-69
2023/03/29 02:35:33;;;;;;;21.27;13.00;;;28.10;99.90;;;;;;5035071;28;20100;-68
2023/03/29 02:38:03;;;;;;;24.15;14.02;;;28.10;99.90;;;;;;5034632;28;20031;-69
2023/03/29 02:40:32;;;;;;;22.63;11.98;;;28.20;99.90;;;;;;5035073;28;20124;-68
2023/03/29 02:43:01;;;;;;;24.13;13.93;;;28.20;99.90;;;;;;5034799;28;20030;-69
2023/03/29 02:45:29;;;;;;;25.92;15.02;;;28.30;99.90;;;;;;5044301;28;20029;-69
2023/03/29 02:48:01;;;;;;;25.05;13.15;;;28.40;99.90;;;;;;5049637;28;20043;-68
2023/03/29 02:50:34;;;;;;;29.38;15.10;;;28.40;99.90;;;;;;5054367;28;20107;-69
2023/03/29 02:53:23;;;;;;;24.75;14.63;;;28.40;99.90;;;;;;5054630;28;20083;-68
2023/03/29 02:55:51;;;;;;;27.00;16.13;;;28.50;99.90;;;;;;5029790;28;20035;-70
2023/03/29 02:58:19;;;;;;;29.67;17.45;;;28.60;99.90;;;;;;5054519;28;20021;-70
2023/03/29 03:00:48;;;;;;;32.35;18.92;;;28.70;99.90;;;;;;5054455;28;20025;-69
2023/03/29 03:03:14;;;;;;;27.25;16.65;;;28.70;99.90;;;;;;5054199;28;20055;-68
2023/03/29 03:05:42;;;;;;;45.58;25.05;;;28.80;99.90;;;;;;5054350;28;20025;-69
2023/03/29 03:08:09;;;;;;;28.00;19.13;;;28.90;99.90;;;;;;5054232;28;20383;-74
2023/03/29 03:10:36;;;;;;;61.95;31.10;;;28.90;99.90;;;;;;5053976;28;20458;-74
2023/03/29 03:13:03;;;;;;;33.72;19.55;;;28.90;99.90;;;;;;5053818;28;20024;-74
2023/03/29 03:15:30;;;;;;;39.50;20.83;;;29.00;99.90;;;;;;5054251;28;20416;-68
2023/03/29 03:17:56;;;;;;;34.90;21.65;;;29.10;99.90;;;;;;5053716;28;20049;-69
2023/03/29 03:20:23;;;;;;;44.58;23.33;;;29.10;99.90;;;;;;5054069;28;20466;-69
2023/03/29 03:22:49;;;;;;;33.00;19.98;;;29.10;99.90;;;;;;5053961;28;20029;-70
2023/03/29 03:25:20;;;;;;;35.92;21.67;;;29.20;99.90;;;;;;5053596;28;20028;-70
2023/03/29 03:27:48;;;;;;;33.65;21.38;;;29.20;99.90;;;;;;5053918;28;20025;-71
2023/03/29 03:30:15;;;;;;;32.88;20.83;;;29.30;99.90;;;;;;5053716;28;20394;-71
2023/03/29 03:32:43;;;;;;;34.70;21.45;;;29.40;99.90;;;;;;5053706;28;20049;-71
2023/03/29 03:35:10;;;;;;;40.83;22.20;;;29.40;99.90;;;;;;5053784;28;20029;-70
2023/03/29 03:37:38;;;;;;;48.00;27.10;;;29.40;99.90;;;;;;5053603;28;20029;-71
2023/03/29 03:40:10;;;;;;;30.25;20.48;;;29.50;99.90;;;;;;5053493;28;20033;-69
2023/03/29 03:42:41;;;;;;;49.58;25.00;;;29.50;99.90;;;;;;5053593;28;20025;-68
2023/03/29 03:45:08;;;;;;;21.45;15.93;;;29.60;99.90;;;;;;5053395;28;20029;-69
2023/03/29 03:47:36;;;;;;;28.73;18.88;;;29.70;99.90;;;;;;5053454;28;20029;-71
2023/03/29 03:50:04;;;;;;;31.17;19.60;;;29.70;99.90;;;;;;5053416;28;20539;-71
2023/03/29 03:52:33;;;;;;;24.55;16.60;;;29.80;99.90;;;;;;5053240;28;20048;-68
2023/03/29 03:55:02;;;;;;;26.02;18.65;;;29.80;99.90;;;;;;5053448;28;20497;-66
2023/03/29 03:57:28;;;;;;;25.52;15.98;;;29.80;99.90;;;;;;5053584;28;20431;-66
2023/03/29 03:59:55;;;;;;;22.55;15.70;;;29.90;99.90;;;;;;5052934;28;20378;-68
2023/03/29 04:02:21;;;;;;;20.95;13.23;;;29.90;99.90;;;;;;5049145;28;20032;-68
2023/03/29 04:04:48;;;;;;;12.82;9.55;;;29.90;99.90;;;;;;5041437;28;20025;-67
2023/03/29 04:07:16;;;;;;;15.77;11.13;;;30.00;99.90;;;;;;5033213;28;20437;-69
2023/03/29 04:09:43;;;;;;;12.10;10.15;;;30.10;99.90;;;;;;5033155;28;20029;-69
2023/03/29 04:12:10;;;;;;;12.65;10.00;;;30.10;99.90;;;;;;5055201;28;20024;-68
2023/03/29 04:14:37;;;;;;;9.35;8.35;;;30.20;99.90;;;;;;5061689;28;20021;-69
2023/03/29 04:17:04;;;;;;;16.23;8.32;;;30.20;99.90;;;;;;5060560;28;20025;-70
2023/03/29 04:19:31;;;;;;;13.95;8.27;;;30.10;99.90;;;;;;5062261;28;20045;-68
2023/03/29 04:21:58;;;;;;;15.82;9.68;;;30.30;99.90;;;;;;5061711;28;20029;-68
2023/03/29 04:24:24;;;;;;;11.43;9.40;;;30.30;99.90;;;;;;5060150;28;20040;-69
2023/03/29 04:26:51;;;;;;;16.42;10.63;;;30.40;99.90;;;;;;5062263;28;20023;-67
2023/03/29 04:29:17;;;;;;;18.13;9.93;;;30.40;99.90;;;;;;5061920;28;20094;-67
2023/03/29 04:31:44;;;;;;;11.90;8.00;;;30.40;99.90;;;;;;5060364;28;20116;-69
2023/03/29 04:34:10;;;;;;;14.32;8.95;;;30.50;99.90;;;;;;5062411;28;20009;-68
2023/03/29 04:36:37;;;;;;;9.85;7.07;;;30.50;99.90;;;;;;5059297;28;20378;-68
2023/03/29 04:39:06;;;;;;;10.48;7.32;;;30.70;99.90;;;;;;5062379;28;20578;-69
2023/03/29 04:41:33;;;;;;;12.88;7.38;;;30.70;99.90;;;;;;5061391;28;20448;-68
2023/03/29 04:44:02;;;;;;;9.23;6.57;;;30.70;99.90;;;;;;5061116;28;20052;-68
2023/03/29 04:46:29;;;;;;;14.10;8.52;;;30.70;99.90;;;;;;5057583;28;20104;-69
2023/03/29 04:48:56;;;;;;;10.07;8.15;;;30.70;99.90;;;;;;5061562;28;20021;-70
2023/03/29 04:51:23;;;;;;;10.88;7.57;;;30.70;99.90;;;;;;5062336;28;20016;-69
2023/03/29 04:53:49;;;;;;;11.23;8.32;;;30.80;99.90;;;;;;5057907;28;20021;-70
2023/03/29 04:56:16;;;;;;;10.15;7.60;;;30.80;99.90;;;;;;5061404;28;20096;-69
2023/03/29 04:58:43;;;;;;;14.43;7.68;;;30.80;99.90;;;;;;5059932;28;20013;-68
2023/03/29 05:01:10;;;;;;;8.52;7.30;;;30.80;99.90;;;;;;5052584;28;20127;-71
2023/03/29 05:03:36;;;;;;;8.55;7.13;;;30.80;99.90;;;;;;5052708;28;20021;-70
2023/03/29 05:06:05;;;;;;;9.77;7.47;;;30.80;99.90;;;;;;5052688;28;20036;-69
2023/03/29 05:08:38;;;;;;;11.43;6.35;;;30.90;99.90;;;;;;5055443;28;20056;-69
2023/03/29 05:11:10;;;;;;;10.23;6.85;;;30.90;99.90;;;;;;5060312;28;20025;-69
2023/03/29 05:13:37;;;;;;;9.48;7.57;;;30.90;99.90;;;;;;5041031;28;20359;-72
2023/03/29 05:16:05;;;;;;;12.15;7.45;;;30.90;99.90;;;;;;5060468;28;20021;-72
2023/03/29 05:18:32;;;;;;;15.05;7.10;;;30.90;99.90;;;;;;5053936;28;20128;-71
2023/03/29 05:20:59;;;;;;;13.80;7.50;;;30.90;99.90;;;;;;5062373;28;20037;-70
2023/03/29 05:23:26;;;;;;;12.02;7.18;;;31.00;99.90;;;;;;5064889;28;20469;-69
2023/03/29 05:25:53;;;;;;;10.57;6.75;;;31.10;99.90;;;;;;5059597;28;20091;-70
2023/03/29 05:28:20;;;;;;;11.98;7.47;;;31.10;99.90;;;;;;5061689;28;20021;-69
2023/03/29 05:30:47;;;;;;;10.23;7.75;;;31.20;99.90;;;;;;5061187;28;20533;-69
2023/03/29 05:33:14;;;;;;;15.00;7.45;;;31.30;99.90;;;;;;5059858;28;20040;-69
2023/03/29 05:35:40;;;;;;;11.60;6.47;;;31.40;99.90;;;;;;5058140;28;20515;-69
2023/03/29 05:38:07;;;;;;;11.70;6.72;;;31.40;99.90;;;;;;5064360;28;20055;-70
2023/03/29 05:40:34;;;;;;;11.73;7.28;;;31.50;99.90;;;;;;5065477;28;20016;-68
2023/03/29 05:43:01;;;;;;;12.23;7.55;;;31.40;99.90;;;;;;5063995;28;20039;-68
2023/03/29 05:45:28;;;;;;;11.07;7.07;;;31.40;99.90;;;;;;5064364;28;20024;-68
2023/03/29 05:47:56;;;;;;;11.15;7.85;;;31.50;99.90;;;;;;5065535;28;20047;-68
2023/03/29 05:50:22;;;;;;;11.65;7.05;;;31.50;99.90;;;;;;5063869;28;20032;-68
2023/03/29 05:52:49;;;;;;;11.43;7.28;;;31.60;99.90;;;;;;5064219;28;20095;-68
2023/03/29 05:55:16;;;;;;;7.03;6.20;;;31.70;99.90;;;;;;5065678;28;20416;-67
2023/03/29 05:57:42;;;;;;;8.40;6.18;;;31.80;99.90;;;;;;5064172;28;20013;-69
2023/03/29 06:00:22;;;;;;;12.93;6.75;;;31.90;99.90;;;;;;5064015;28;20074;-68
2023/03/29 06:02:51;;;;;;;9.38;5.50;;;31.90;99.90;;;;;;5064027;28;20027;-68
2023/03/29 06:05:19;;;;;;;8.63;6.85;;;31.90;99.90;;;;;;5063505;28;20028;-68
2023/03/29 06:07:49;;;;;;;12.88;7.05;;;31.80;99.90;;;;;;5060292;28;20032;-68
2023/03/29 06:10:16;;;;;;;6.78;5.80;;;31.80;99.90;;;;;;5064096;28;20509;-67
2023/03/29 06:12:43;;;;;;;7.15;4.82;;;31.80;99.90;;;;;;5062194;28;20048;-68
2023/03/29 06:15:12;;;;;;;6.40;5.40;;;31.80;99.90;;;;;;5061589;28;20029;-68
2023/03/29 06:17:38;;;;;;;8.90;4.78;;;31.80;99.90;;;;;;5060559;28;20025;-68
2023/03/29 06:20:09;;;;;;;6.28;5.07;;;31.90;99.90;;;;;;5061427;28;20500;-68
2023/03/29 06:22:37;;;;;;;6.53;5.15;;;31.80;99.90;;;;;;5062553;28;20119;-68
2023/03/29 06:25:05;;;;;;;5.25;4.63;;;31.90;99.90;;;;;;5061974;28;20089;-69
2023/03/29 06:27:32;;;;;;;8.27;5.10;;;31.90;99.90;;;;;;5062804;28;20026;-68
2023/03/29 06:29:59;;;;;;;10.05;7.13;;;32.00;99.90;;;;;;5059741;28;20090;-66
2023/03/29 06:32:26;;;;;;;7.35;6.38;;;32.00;99.90;;;;;;5059992;28;20023;-67
2023/03/29 06:34:53;;;;;;;14.23;6.47;;;32.10;99.90;;;;;;5064009;28;20028;-68
2023/03/29 06:37:20;;;;;;;6.82;6.13;;;32.10;99.90;;;;;;5067653;28;20411;-71
2023/03/29 06:39:56;;;;;;;8.25;6.80;;;32.00;99.90;;;;;;5068784;28;20017;-67
2023/03/29 06:42:23;;;;;;;12.90;6.82;;;32.00;99.90;;;;;;5068139;28;20028;-68
2023/03/29 06:44:51;;;;;;;7.93;6.30;;;32.00;99.90;;;;;;5066915;28;20085;-66
2023/03/29 06:47:18;;;;;;;7.63;6.82;;;32.00;99.90;;;;;;5065720;28;20028;-67
2023/03/29 06:49:44;;;;;;;9.80;6.57;;;32.10;99.90;;;;;;5065559;28;20016;-69
2023/03/29 06:52:11;;;;;;;6.63;5.72;;;32.10;99.90;;;;;;5066452;28;20454;-68
2023/03/29 06:54:37;;;;;;;6.50;5.20;;;32.10;99.90;;;;;;5066084;28;20017;-69
2023/03/29 06:57:04;;;;;;;7.35;6.10;;;32.10;99.90;;;;;;5065823;28;20055;-69
2023/03/29 06:59:31;;;;;;;7.00;5.38;;;32.10;99.90;;;;;;5066222;28;20031;-70
2023/03/29 07:01:57;;;;;;;5.80;5.13;;;32.10;99.90;;;;;;5065787;28;20021;-69
2023/03/29 07:04:24;;;;;;;7.68;5.50;;;32.10;99.90;;;;;;5065629;28;20461;-70
2023/03/29 07:07:00;;;;;;;7.05;5.43;;;32.00;99.90;;;;;;5066115;28;20127;-67
2023/03/29 07:09:29;;;;;;;6.40;5.18;;;32.00;99.90;;;;;;5065401;28;20024;-69
2023/03/29 07:11:58;;;;;;;14.15;6.57;;;32.00;99.90;;;;;;5066049;28;20047;-69
2023/03/29 07:14:27;;;;;;;7.50;6.47;;;32.00;99.90;;;;;;5064617;28;20048;-68
2023/03/29 07:16:55;;;;;;;6.10;5.60;;;32.00;99.90;;;;;;5062783;28;20094;-69
2023/03/29 07:19:24;;;;;;;8.90;6.13;;;31.90;99.90;;;;;;5058964;28;20049;-69
2023/03/29 07:21:53;;;;;;;8.32;6.15;;;31.90;99.90;;;;;;5059844;28;20028;-68
2023/03/29 07:24:20;;;;;;;8.13;7.07;;;31.90;99.90;;;;;;5063607;28;20028;-68
2023/03/29 07:26:48;;;;;;;12.57;6.20;;;31.80;99.90;;;;;;5063844;28;20032;-69
2023/03/29 07:29:15;;;;;;;12.65;5.35;;;31.80;99.90;;;;;;5064093;28;20032;-70
2023/03/29 07:31:42;;;;;;;5.75;4.10;;;31.90;99.90;;;;;;5059670;28;20024;-69
2023/03/29 07:34:10;;;;;;;7.28;4.43;;;32.00;99.90;;;;;;5063388;28;20099;-70
2023/03/29 07:36:39;;;;;;;5.88;3.47;;;32.10;99.90;;;;;;5058858;28;20057;-68
2023/03/29 07:39:08;;;;;;;7.75;4.47;;;32.20;99.90;;;;;;5053730;28;20478;-69
2023/03/29 07:41:34;;;;;;;5.25;4.70;;;32.20;99.90;;;;;;5053612;28;20037;-70
2023/03/29 07:44:07;;;;;;;7.75;4.75;;;32.40;99.90;;;;;;5053530;28;20033;-70
2023/03/29 07:46:35;;;;;;;11.68;7.35;;;32.50;99.90;;;;;;5053767;28;20025;-70
2023/03/29 07:49:02;;;;;;;8.63;4.50;;;32.70;99.90;;;;;;5053653;28;20382;-70
2023/03/29 07:51:30;;;;;;;6.55;3.90;;;32.70;99.90;;;;;;5052100;28;20029;-71
2023/03/29 07:53:56;;;;;;;4.32;3.92;;;32.60;99.90;;;;;;5051573;28;20032;-70
2023/03/29 07:56:23;;;;;;;7.70;4.00;;;32.50;99.90;;;;;;5053514;28;20017;-70
2023/03/29 07:58:50;;;;;;;10.27;4.35;;;32.50;99.90;;;;;;5053278;28;20025;-70
2023/03/29 08:01:18;;;;;;;13.80;5.85;;;32.40;99.90;;;;;;5053549;28;20025;-68
2023/03/29 08:03:44;;;;;;;11.38;7.00;;;32.20;99.90;;;;;;5053354;28;20025;-69
2023/03/29 08:06:11;;;;;;;12.77;6.25;;;32.10;99.90;;;;;;5053139;28;20021;-68
2023/03/29 08:08:37;;;;;;;25.27;15.02;;;32.00;99.90;;;;;;5049216;28;20482;-69
2023/03/29 08:11:07;;;;;;;25.73;13.43;;;31.70;99.90;;;;;;5034210;28;20371;-70
2023/03/29 08:13:34;;;;;;;21.38;12.60;;;31.20;99.90;;;;;;5039568;28;20100;-69
2023/03/29 08:16:00;;;;;;;12.98;7.90;;;30.50;99.90;;;;;;5039638;28;20022;-69
2023/03/29 08:18:27;;;;;;;27.40;14.63;;;29.60;99.90;;;;;;5033258;28;20103;-68
2023/03/29 08:20:54;;;;;;;47.95;28.23;;;29.00;99.90;;;;;;5033121;28;20030;-68
2023/03/29 08:23:20;;;;;;;21.27;10.82;;;28.50;99.90;;;;;;5033285;28;20071;-67
2023/03/29 08:25:47;;;;;;;14.15;7.72;;;28.10;99.90;;;;;;5033312;28;20025;-68
2023/03/29 08:28:13;;;;;;;19.30;11.18;;;27.50;99.90;;;;;;5053026;28;20017;-67
2023/03/29 08:30:40;;;;;;;19.58;11.50;;;27.30;99.90;;;;;;5052987;28;20370;-68
2023/03/29 08:33:06;;;;;;;13.77;10.18;;;27.00;99.90;;;;;;5052987;28;20406;-68
2023/03/29 08:35:33;;;;;;;14.52;8.15;;;26.80;99.90;;;;;;5052895;28;20036;-70
2023/03/29 08:37:59;;;;;;;12.63;7.97;;;26.50;99.90;;;;;;5052927;28;20057;-72
2023/03/29 08:40:30;;;;;;;15.82;8.45;;;26.40;99.90;;;;;;5053129;28;20029;-71
2023/03/29 08:43:00;;;;;;;14.38;9.18;;;26.30;99.90;;;;;;5052929;28;20485;-72
2023/03/29 09:17:40;;;;;;;35.40;21.02;;;26.60;99.90;;;;;;5088952;27;20481;-70
2023/03/29 09:20:06;;;;;;;32.05;21.00;;;26.80;99.90;;;;;;5089562;28;20562;-67
2023/03/29 09:22:32;;;;;;;;;;;;;;;;;;5082607;28;25079;-66
2023/03/29 09:24:59;;;;;;;;;;;;;;;;;;5073663;28;25072;-65
2023/03/29 09:27:26;;;;;;;;;;;;;;;;;;5072301;28;25125;-66
2023/03/29 09:29:58;;;;;;;59.00;14.80;;;;;;;;;;5075102;28;25192;-65
2023/03/29 09:32:25;;;;;;;;;;;;;;;;;;5077477;28;25132;-66
2023/03/29 09:35:13;;;;;;;236.80;120.10;;;;;;;;;;5077557;28;20376;-65
2023/03/29 09:37:40;;;;;;;32.80;18.75;;;;;;;;;;5077358;28;20366;-66
2023/03/29 09:40:17;;;;;;;36.40;20.75;;;;;;;;;;5078869;28;20035;-65
2023/03/29 09:42:44;;;;;;;36.65;17.77;;;;;;;;;;5078320;28;20016;-69
2023/03/29 09:45:12;;;;;;;22.77;14.40;;;;;;;;;;5077523;28;20488;-70
2023/03/29 09:47:42;;;;;;;37.40;19.73;;;;;;;;;;5077263;28;20036;-70
2023/03/29 09:50:14;;;;;;;75.05;32.67;;;;;;;;;;5078632;28;20032;-70
2023/03/29 09:52:40;;;;;;;45.72;29.13;;;;;;;;;;5078038;28;20055;-69
2023/03/29 09:55:07;;;;;;;41.10;24.05;;;;;;;;;;5079038;28;20154;-70
2023/03/29 09:57:34;;;;;;;32.92;20.88;;;;;;;;;;5080470;28;20101;-70
2023/03/29 10:00:04;;;;;;;29.80;21.25;;;;;;;;;;5072119;28;20074;-68
2023/03/29 10:02:31;;;;;;;28.70;20.50;;;;;;;;;;5078963;28;20381;-69
2023/03/29 10:04:59;;;;;;;27.88;22.83;;;;;;;;;;5079597;28;20020;-70
2023/03/29 10:07:34;;;;;;;53.17;33.78;;;;;;;;;;5077820;28;20016;-70
2023/03/29 10:10:01;;;;;;;50.67;30.75;;;;;;;;;;5074145;28;20024;-69
2023/03/29 10:12:27;;;;;;;87.60;42.65;;;;;;;;;;5077438;28;20413;-70
2023/03/29 10:14:54;;;;;;;84.53;51.15;;;;;;;;;;5078049;28;20095;-70
2023/03/29 10:17:28;;;;;;;137.63;56.80;;;;;;;;;;5079597;28;20039;-68
2023/03/29 10:19:56;;;;;;;78.30;31.88;;;;;;;;;;5078983;28;20382;-70
2023/03/29 10:22:24;;;;;;;48.30;27.73;;;;;;;;;;5077326;28;20020;-70
2023/03/29 10:24:52;;;;;;;50.25;30.13;;;;;;;;;;5078880;28;20017;-70
2023/03/29 10:27:22;;;;;;;38.35;26.52;;;;;;;;;;5071311;28;20146;-69
2023/03/29 10:29:49;;;;;;;42.00;29.92;;;;;;;;;;5064774;28;20466;-68
2023/03/29 10:32:17;;;;;;;60.22;42.08;;;;;;;;;;5059323;28;20376;-69
2023/03/29 10:34:46;;;;;;;41.28;29.55;;;;;;;;;;5059508;28;20012;-68
2023/03/29 10:37:15;;;;;;;43.92;30.38;;;;;;;;;;5059477;28;20037;-68
2023/03/29 10:39:42;;;;;;;65.78;37.38;;;;;;;;;;5059651;28;20355;-68
2023/03/29 10:42:12;;;;;;;45.65;35.22;;;;;;;;;;5059096;28;20047;-69
2023/03/29 10:44:40;;;;;;;48.47;35.53;;;;;;;;;;5071656;23;20056;-68
2023/03/29 10:47:15;;;;;;;52.33;39.75;;;;;;;;;;5023710;28;20045;-71
2023/03/29 10:49:45;;;;;;;57.47;40.70;;;;;;;;;;5026405;28;20025;-70
2023/03/29 10:52:15;;;;;;;60.72;43.70;;;;;;;;;;5025020;28;20107;-70
2023/03/29 10:54:41;;;;;;;70.82;45.40;;;;;;;;;;5024088;28;20097;-70
2023/03/29 10:57:10;;;;;;;64.75;46.25;;;;;;;;;;5025457;28;20021;-71
2023/03/29 10:59:37;;;;;;;65.07;48.10;;;;;;;;;;5025764;28;20467;-70
2023/03/29 11:02:13;;;;;;;66.00;46.55;;;;;;;;;;5027924;28;20390;-69
2023/03/29 11:04:42;;;;;;;62.67;45.03;;;;;;;;;;5028713;28;20461;-70
2023/03/29 11:07:20;;;;;;;62.58;45.53;;;;;;;;;;5052190;22;20046;-70
2023/03/29 11:10:06;;;;;;;53.60;41.08;;;;;;;;;;5024441;28;20030;-71
2023/03/29 11:12:46;;;;;;;52.72;36.90;;;;;;;;;;5023141;28;20066;-70
2023/03/29 11:15:23;;;;;;;51.42;38.85;;;;;;;;;;5035374;28;20099;-70
2023/03/29 11:17:49;;;;;;;91.30;64.28;;;;;;;;;;5035007;28;20147;-70
2023/03/29 11:20:27;;;;;;;110.32;75.78;;;;;;;;;;5035373;28;20021;-69
2023/03/29 11:23:07;;;;;;;132.27;99.25;;;;;;;;;;5034753;28;20103;-68
2023/03/29 11:25:52;;;;;;;121.93;87.38;;;;;;;;;;5015591;28;20395;-69
2023/03/29 11:28:24;;;;;;;105.40;80.20;;;;;;;;;;5015262;28;20482;-71
2023/03/29 11:30:54;;;;;;;113.35;81.93;;;;;;;;;;5015344;28;20080;-70
2023/03/29 11:33:21;;;;;;;104.70;79.93;;;;;;;;;;5015012;28;20025;-68
2023/03/29 11:35:48;;;;;;;71.10;53.63;;;;;;;;;;5015043;28;20029;-70
2023/03/29 11:38:29;;;;;;;86.90;65.75;;;;;;;;;;5013442;28;20526;-73
2023/03/29 11:41:16;;;;;;;109.22;77.30;;;;;;;;;;4995196;28;20030;-72
2023/03/29 11:43:50;;;;;;;95.38;68.80;;;;;;;;;;5006866;28;20034;-72
2023/03/29 11:46:19;;;;;;;90.43;67.22;;;;;;;;;;5015188;28;20021;-71
2023/03/29 11:48:49;;;;;;;88.07;64.55;;;;;;;;;;5015390;28;20030;-72
2023/03/29 11:51:18;;;;;;;66.35;43.38;;;;;;;;;;5008766;28;20511;-70
2023/03/29 11:53:50;;;;;;;70.75;45.13;;;;;;;;;;5011806;28;20044;-71
2023/03/29 11:56:31;;;;;;;95.72;62.92;;;;;;;;;;5014660;28;20121;-71
2023/03/29 11:59:00;;;;;;;103.88;71.45;;;;;;;;;;4998477;28;20375;-72
2023/03/29 12:01:33;;;;;;;91.50;60.80;;;;;;;;;;4996317;28;20037;-73
2023/03/29 12:04:02;;;;;;;85.72;56.92;;;;;;;;;;4997052;28;20022;-69
2023/03/29 12:06:41;;;;;;;146.65;90.20;;;;;;;;;;5011643;28;20026;-72
2023/03/29 12:09:16;;;;;;;139.25;86.40;;;;;;;;;;5005226;28;20065;-72
2023/03/29 12:11:48;;;;;;;135.75;86.65;;;;;;;;;;5005635;28;20038;-77
2023/03/29 12:14:19;;;;;;;188.90;111.70;;;;;;;;;;5006286;28;20061;-72
2023/03/29 12:16:50;;;;;;;85.38;52.75;;;;;;;;;;5003544;28;20058;-73
2023/03/29 12:19:18;;;;;;;77.47;47.05;;;;;;;;;;5006021;28;20125;-71
2023/03/29 12:21:45;;;;;;;79.70;44.13;;;;;;;;;;5003957;28;20027;-70
2023/03/29 12:24:12;;;;;;;69.65;48.15;;;;;;;;;;5005051;28;20018;-70
2023/03/29 12:26:48;;;;;;;61.28;40.50;;;;;;;;;;5003558;28;20033;-71
2023/03/29 12:29:19;;;;;;;45.40;31.80;;;;;;;;;;5004197;28;20033;-70
2023/03/29 12:32:06;;;;;;;39.75;28.05;;;;;;;;;;5005366;28;20017;-73
2023/03/29 12:34:34;;;;;;;31.75;24.42;;;;;;;;;;5008567;28;20087;-73
2023/03/29 12:37:02;;;;;;;40.78;29.42;;;;;;;;;;5002826;28;20506;-73
2023/03/29 12:39:30;;;;;;;98.07;75.78;;;;;;;;;;5003950;28;20068;-72
2023/03/29 12:42:16;;;;;;;137.35;100.47;;;;;;;;;;5005511;28;20080;-73
2023/03/29 12:44:46;;;;;;;91.47;66.93;;;;;;;;;;4997336;28;20054;-71
2023/03/29 12:47:18;;;;;;;51.25;36.28;;;;;;;;;;4994126;28;20026;-71
2023/03/29 12:49:46;;;;;;;108.97;81.30;;;;;;;;;;4994162;28;20034;-70
2023/03/29 12:52:21;;;;;;;67.53;47.75;;;;;;;;;;4996258;28;20480;-71
2023/03/29 12:54:55;;;;;;;57.92;37.50;;;;;;;;;;4997054;28;20034;-71
2023/03/29 12:57:41;;;;;;;64.93;41.63;;;;;;;;;;4993663;28;20022;-70
2023/03/29 13:00:12;;;;;;;62.53;44.30;;;;;;;;;;4994299;28;20026;-70
2023/03/29 13:02:39;;;;;;;57.67;36.30;;;;;;;;;;4994218;28;20017;-70
2023/03/29 13:05:25;;;;;;;46.90;33.88;;;;;;;;;;4994087;28;20014;-71
2023/03/29 13:07:52;;;;;;;43.38;29.70;;;;;;;;;;4993834;28;20038;-71
2023/03/29 13:10:38;;;;;;;60.63;44.83;;;;;;;;;;4994145;28;20077;-69
2023/03/29 13:13:11;;;;;;;69.75;47.70;;;;;;;;;;4994212;28;20464;-67
2023/03/29 13:15:37;;;;;;;;;;;;;;;;;;4996213;28;20026;-70
2023/03/29 13:18:23;;;;;;;46.80;33.72;;;;;;;;;;5004090;28;19925;-70
2023/03/29 13:20:59;;;;;;;48.25;33.63;;;;;;;;;;5003452;28;20467;-70
2023/03/29 13:23:30;;;;;;;51.65;32.50;;;;;;;;;;5003755;28;20411;-77
2023/03/29 13:25:59;;;;;;;41.03;31.13;;;;;;;;;;5002845;28;20411;-71
2023/03/29 13:28:32;;;;;;;43.63;29.40;;;;;;;;;;5001899;28;20479;-74
2023/03/29 13:31:04;;;;;;;38.83;29.88;;;;;;;;;;5009413;28;20033;-74
2023/03/29 13:33:31;;;;;;;;;;;;;;;;;;5006560;28;20032;-71
2023/03/29 13:36:00;;;;;;;32.17;26.13;;;;;;;;;;5010239;28;19924;-70
2023/03/29 13:38:30;;;;;;;35.05;25.20;;;;;;;;;;5014096;28;20022;-70
2023/03/29 13:40:59;;;;;;;34.88;25.50;;;;;;;;;;5005709;28;20053;-72
2023/03/29 13:43:34;;;;;;;34.25;24.05;;;;;;;;;;5004054;28;20036;-73
2023/03/29 13:46:02;;;;;;;30.25;24.23;;;;;;;;;;5002073;28;20377;-74
2023/03/29 13:48:30;;;;;;;38.17;25.00;;;;;;;;;;5003375;28;20029;-74
2023/03/29 13:51:07;;;;;;;37.35;23.75;;;;;;;;;;5005347;28;20026;-74
2023/03/29 13:53:33;;;;;;;35.13;23.38;;;;;;;;;;5004628;28;20482;-70